Time;durP1;ratioP1;P1;durP2;ratioP2;P2;SDS_P1;SDS_P2;PMS_P1;PMS_P2;Temp;Humidity;BMP_temperature;BMP_pressure;BME280_temperature;BME280_humidity;BME280_pressure;Samples;Min_cycle;Max_cycle;Signal;HPM_P1;HPM_P2
2023/06/17 00:04:23;;;;;;;;;;;26.50;46.60;;;;;;20915404;28;20015;-55
2023/06/17 00:14:24;;;;;;;;;;;26.40;46.60;;;;;;20914904;28;19971;-57
2023/06/17 00:24:25;;;;;;;;;;;26.20;47.20;;;;;;20912870;28;20011;-56
2023/06/17 00:34:25;;;;;;;;;;;26.10;47.60;;;;;;20913810;28;20290;-55
2023/06/17 00:44:26;;;;;;;;;;;26.00;48.30;;;;;;20913420;28;19924;-56
2023/06/17 00:54:27;;;;;;;;;;;25.90;48.80;;;;;;20913079;28;19928;-57
2023/06/17 01:04:28;;;;;;;;;;;25.70;49.10;;;;;;20911457;28;19948;-55
2023/06/17 01:14:30;;;;;;;;;;;25.60;49.40;;;;;;20912138;28;20388;-57
2023/06/17 01:24:30;;;;;;;;;;;25.60;49.40;;;;;;20910988;28;19965;-55
2023/06/17 01:34:51;;;;;;;;;;;25.60;49.80;;;;;;20916578;28;19924;-55
2023/06/17 01:44:52;;;;;;;;;;;25.40;50.70;;;;;;20926061;28;19932;-55
2023/06/17 01:54:53;;;;;;;;;;;25.20;51.50;;;;;;20924031;28;20019;-58
2023/06/17 02:04:54;;;;;;;;;;;25.20;51.80;;;;;;20924606;28;20408;-57
2023/06/17 02:14:55;;;;;;;;;;;25.00;52.40;;;;;;20923698;28;19925;-56
2023/06/17 02:24:55;;;;;;;;;;;25.00;52.50;;;;;;20921692;28;19925;-56
2023/06/17 02:34:57;;;;;;;;;;;25.00;52.60;;;;;;20921051;28;19925;-55
2023/06/17 02:44:58;;;;;;;;;;;24.70;53.40;;;;;;20921256;28;19925;-56
2023/06/17 02:54:58;;;;;;;;;;;24.80;53.20;;;;;;20920656;28;19977;-55
2023/06/17 03:04:59;;;;;;;;;;;24.80;53.10;;;;;;20919956;28;19932;-56
2023/06/17 03:15:01;;;;;;;;;;;24.70;52.80;;;;;;20917659;28;20019;-56
2023/06/17 03:25:02;;;;;;;;;;;24.60;53.80;;;;;;20917480;28;19928;-56
2023/06/17 03:35:04;;;;;;;;;;;24.40;54.50;;;;;;20916167;28;19925;-56
2023/06/17 03:45:05;;;;;;;;;;;24.10;55.60;;;;;;20916892;28;19985;-55
2023/06/17 03:55:05;;;;;;;;;;;23.60;56.30;;;;;;20915282;28;19995;-56
2023/06/17 04:05:06;;;;;;;;;;;23.40;56.40;;;;;;20915517;28;19925;-56
2023/06/17 04:15:08;;;;;;;;;;;23.30;56.60;;;;;;20913896;28;19947;-56
2023/06/17 04:25:09;;;;;;;;;;;23.20;57.30;;;;;;20913659;28;19925;-56
2023/06/17 04:35:10;;;;;;;;;;;23.10;57.10;;;;;;20914109;28;19929;-56
2023/06/17 04:45:11;;;;;;;;;;;23.10;57.30;;;;;;20912216;28;19925;-56
2023/06/17 04:55:14;;;;;;;;;;;23.00;57.30;;;;;;20911353;28;20371;-56
2023/06/17 05:05:14;;;;;;;;;;;23.00;57.30;;;;;;20911981;28;19925;-56
2023/06/17 05:15:15;;;;;;;;;;;22.90;57.70;;;;;;20928357;28;19925;-55
2023/06/17 05:25:16;;;;;;;;;;;22.90;57.90;;;;;;20928084;28;20289;-58
2023/06/17 05:35:16;;;;;;;;;;;23.10;57.70;;;;;;20926025;28;20397;-56
2023/06/17 05:45:17;;;;;;;;;;;23.10;57.60;;;;;;20925820;28;19924;-56
2023/06/17 05:55:18;;;;;;;;;;;23.20;57.60;;;;;;20924859;28;19925;-56
2023/06/17 06:05:18;;;;;;;;;;;23.30;57.50;;;;;;20924112;28;20061;-56
2023/06/17 06:15:19;;;;;;;;;;;23.40;57.60;;;;;;20923737;28;20258;-55
2023/06/17 06:25:19;;;;;;;;;;;23.60;57.20;;;;;;20921393;28;19929;-57
2023/06/17 06:35:20;;;;;;;;;;;23.70;56.90;;;;;;20923165;28;19929;-56
2023/06/17 06:45:21;;;;;;;;;;;23.90;55.80;;;;;;20920109;28;19999;-56
2023/06/17 06:55:21;;;;;;;;;;;24.20;53.30;;;;;;20918987;28;19975;-57
2023/06/17 07:05:22;;;;;;;;;;;24.90;49.10;;;;;;20918688;28;19924;-56
2023/06/17 07:15:23;;;;;;;;;;;25.60;46.40;;;;;;20917501;28;19924;-58
2023/06/17 07:25:23;;;;;;;;;;;26.30;44.30;;;;;;20915621;28;19970;-57
2023/06/17 07:35:24;;;;;;;;;;;26.80;43.40;;;;;;20916014;28;20411;-56
2023/06/17 07:45:25;;;;;;;;;;;27.50;41.40;;;;;;20915340;28;19966;-56
2023/06/17 07:55:26;;;;;;;;;;;28.10;38.80;;;;;;20914236;28;19925;-57
2023/06/17 08:05:27;;;;;;;;;;;28.20;38.50;;;;;;20911603;28;19943;-57
2023/06/17 08:15:28;;;;;;;;;;;28.60;38.40;;;;;;20917409;28;19976;-61
2023/06/17 08:25:28;;;;;;;;;;;28.90;38.40;;;;;;20923168;28;20430;-62
2023/06/17 08:35:29;;;;;;;;;;;29.10;37.60;;;;;;20896338;28;19928;-60
2023/06/17 08:45:30;;;;;;;;;;;29.50;37.80;;;;;;20923849;28;20553;-61
2023/06/17 08:55:30;;;;;;;;;;;29.60;36.80;;;;;;20932995;28;20039;-60
2023/06/17 09:05:31;;;;;;;;;;;29.90;36.20;;;;;;20939101;28;20289;-60
2023/06/17 09:15:31;;;;;;;;;;;29.90;36.60;;;;;;20939454;28;19975;-60
2023/06/17 09:25:35;;;;;;;;;;;30.10;36.10;;;;;;20937735;28;19925;-60
2023/06/17 09:35:35;;;;;;;;;;;30.10;36.50;;;;;;20938809;28;20393;-60
2023/06/17 09:45:37;;;;;;;;;;;30.30;36.90;;;;;;20938257;28;19978;-61
2023/06/17 09:55:38;;;;;;;;;;;30.60;36.70;;;;;;20929349;28;19931;-61
2023/06/17 10:05:38;;;;;;;;;;;30.70;37.30;;;;;;20923025;28;19979;-61
2023/06/17 10:15:39;;;;;;;;;;;30.80;37.30;;;;;;20923364;28;20293;-60
2023/06/17 10:25:40;;;;;;;;;;;31.10;36.40;;;;;;20921238;28;19952;-61
2023/06/17 10:35:42;;;;;;;;;;;31.20;36.30;;;;;;20920387;28;19935;-61
2023/06/17 10:45:53;;;;;;;;;;;31.60;35.70;;;;;;20920821;28;20382;-61
2023/06/17 10:55:54;;;;;;;;;;;32.10;34.80;;;;;;20920408;28;20340;-60
2023/06/17 11:06:01;;;;;;;;;;;32.60;33.70;;;;;;20917687;28;19925;-60
2023/06/17 11:16:02;;;;;;;;;;;32.40;34.50;;;;;;20917799;28;19925;-60
2023/06/17 11:26:04;;;;;;;;;;;32.60;33.20;;;;;;20918015;28;20305;-59
2023/06/17 11:36:08;;;;;;;;;;;32.80;31.90;;;;;;20913696;28;20340;-57
2023/06/17 11:46:09;;;;;;;;;;;32.80;32.30;;;;;;20887419;28;19925;-60
2023/06/17 11:56:09;;;;;;;;;;;33.20;29.90;;;;;;20904171;28;19931;-59
2023/06/17 12:06:16;;;;;;;;;;;33.10;28.90;;;;;;20900715;28;20003;-61
2023/06/17 12:16:35;;;;;;;;;;;33.60;28.10;;;;;;20972825;28;20030;-59
2023/06/17 12:26:36;;;;;;;;;;;32.60;30.00;;;;;;20986762;28;20415;-60
2023/06/17 12:36:37;;;;;;;;;;;33.20;28.40;;;;;;20989283;28;20018;-58
2023/06/17 12:46:38;;;;;;;;;;;33.80;28.50;;;;;;20995593;28;20073;-59
2023/06/17 12:56:40;;;;;;;;;;;34.10;27.80;;;;;;20995359;28;19932;-59
2023/06/17 13:06:41;;;;;;;;;;;34.10;28.00;;;;;;20993781;28;19928;-59
2023/06/17 13:16:41;;;;;;;;;;;34.00;28.20;;;;;;20992441;28;20023;-58
2023/06/17 13:26:42;;;;;;;;;;;33.60;29.00;;;;;;20994298;28;20449;-59
2023/06/17 13:36:45;;;;;;;;;;;33.50;29.90;;;;;;21009287;28;19924;-59
2023/06/17 13:46:47;;;;;;;;;;;33.40;29.20;;;;;;21007454;28;19932;-58
2023/06/17 13:56:48;;;;;;;;;;;33.70;28.40;;;;;;21007861;28;19925;-59
2023/06/17 14:06:49;;;;;;;;;;;33.80;28.40;;;;;;21007581;28;20381;-61
2023/06/17 14:16:49;;;;;;;;;;;34.20;28.00;;;;;;21007052;28;20386;-60
2023/06/17 14:26:53;;;;;;;;;;;33.90;29.20;;;;;;21004636;28;19932;-59
2023/06/17 14:36:54;;;;;;;;;;;33.80;27.50;;;;;;21005203;28;19925;-59
2023/06/17 14:46:55;;;;;;;;;;;33.80;27.90;;;;;;21004041;28;19978;-59
2023/06/17 14:56:55;;;;;;;;;;;34.20;26.40;;;;;;21002710;28;19975;-59
2023/06/17 15:06:56;;;;;;;;;;;34.30;27.10;;;;;;21002946;28;19931;-60
2023/06/17 15:16:56;;;;;;;;;;;34.30;26.50;;;;;;21002503;28;19925;-60
2023/06/17 15:26:57;;;;;;;;;;;34.20;26.80;;;;;;21000628;28;19925;-59
2023/06/17 15:36:58;;;;;;;;;;;34.30;26.50;;;;;;20999621;28;19931;-59
2023/06/17 15:46:58;;;;;;;;;;;34.30;27.70;;;;;;20999109;28;20003;-60
2023/06/17 15:57:01;;;;;;;;;;;34.40;27.30;;;;;;20996610;28;19925;-59
2023/06/17 16:07:05;;;;;;;;;;;34.60;26.10;;;;;;20997224;28;20433;-59
2023/06/17 16:17:07;;;;;;;;;;;34.60;27.00;;;;;;20996704;28;19932;-60
2023/06/17 16:27:09;;;;;;;;;;;34.50;27.00;;;;;;20995286;28;19967;-59
2023/06/17 16:37:09;;;;;;;;;;;34.50;25.40;;;;;;20996312;28;19924;-58
2023/06/17 16:47:10;;;;;;;;;;;34.20;27.60;;;;;;20996289;28;19985;-58
2023/06/17 16:57:12;;;;;;;;;;;34.00;27.90;;;;;;20995655;28;20007;-59
2023/06/17 17:07:12;;;;;;;;;;;33.80;27.10;;;;;;21006068;28;20034;-59
2023/06/17 17:17:13;;;;;;;;;;;33.60;28.50;;;;;;21009872;28;19924;-59
2023/06/17 17:27:14;;;;;;;;;;;33.30;30.10;;;;;;21009683;28;20434;-60
2023/06/17 17:37:14;;;;;;;;;;;33.20;30.80;;;;;;21009615;28;19931;-60
2023/06/17 17:47:15;;;;;;;;;;;33.10;32.90;;;;;;21007614;28;19968;-61
2023/06/17 17:57:16;;;;;;;;;;;32.90;33.50;;;;;;21007416;28;20397;-60
2023/06/17 18:07:16;;;;;;;;;;;32.70;32.80;;;;;;21006556;28;19932;-59
2023/06/17 18:17:17;;;;;;;;;;;32.60;32.50;;;;;;21006026;28;20377;-61
2023/06/17 18:27:18;;;;;;;;;;;32.30;32.80;;;;;;21004972;28;19936;-61
2023/06/17 18:37:20;;;;;;;;;;;32.40;32.90;;;;;;21005613;28;19978;-60
2023/06/17 18:47:20;;;;;;;;;;;32.20;33.10;;;;;;21004646;28;19947;-59
2023/06/17 18:57:21;;;;;;;;;;;32.10;33.70;;;;;;21003770;28;19980;-60
2023/06/17 19:07:22;;;;;;;;;;;31.80;34.50;;;;;;21002239;28;19924;-60
2023/06/17 19:17:23;;;;;;;;;;;31.70;34.70;;;;;;21000894;28;19924;-59
2023/06/17 19:27:23;;;;;;;;;;;31.50;35.10;;;;;;20998401;28;19925;-60
2023/06/17 19:37:25;;;;;;;;;;;31.40;35.30;;;;;;20999535;28;19932;-59
2023/06/17 19:47:26;;;;;;;;;;;31.30;35.60;;;;;;20998458;28;19972;-62
2023/06/17 19:57:26;;;;;;;;;;;30.90;36.10;;;;;;20998021;28;19930;-60
2023/06/17 20:07:27;;;;;;;;;;;30.70;36.50;;;;;;20998409;28;20362;-60
2023/06/17 20:17:27;;;;;;;;;;;30.60;36.80;;;;;;20998057;28;20374;-60
2023/06/17 20:27:28;;;;;;;;;;;30.50;36.80;;;;;;20995674;28;19950;-60
2023/06/17 20:37:29;;;;;;;;;;;30.50;37.60;;;;;;20995393;28;20433;-60
2023/06/17 20:47:30;;;;;;;;;;;29.90;39.00;;;;;;20996085;28;19924;-61
2023/06/17 20:57:30;;;;;;;;;;;29.60;39.70;;;;;;20994282;28;20042;-60
2023/06/17 21:07:31;;;;;;;;;;;29.00;41.00;;;;;;20994129;28;19925;-61
2023/06/17 21:17:32;;;;;;;;;;;28.60;41.50;;;;;;20992425;28;19978;-60
2023/06/17 21:27:32;;;;;;;;;;;28.40;42.00;;;;;;20992238;28;20007;-60
2023/06/17 21:37:33;;;;;;;;;;;27.90;43.10;;;;;;20992870;28;19971;-60
2023/06/17 21:47:33;;;;;;;;;;;27.70;43.40;;;;;;20994975;28;19979;-59
2023/06/17 21:57:34;;;;;;;;;;;27.60;43.40;;;;;;21008697;28;19978;-60
2023/06/17 22:07:35;;;;;;;;;;;27.40;43.90;;;;;;21007158;28;19924;-60
2023/06/17 22:17:35;;;;;;;;;;;27.10;44.70;;;;;;21007671;28;19995;-61
2023/06/17 22:27:36;;;;;;;;;;;26.90;45.20;;;;;;21005603;28;19931;-61
2023/06/17 22:37:37;;;;;;;;;;;26.80;45.60;;;;;;21006097;28;19976;-61
2023/06/17 22:47:37;;;;;;;;;;;26.70;45.90;;;;;;21004276;28;19967;-61
2023/06/17 22:57:38;;;;;;;;;;;26.50;46.90;;;;;;21003313;28;19925;-61
2023/06/17 23:07:39;;;;;;;;;;;26.20;47.50;;;;;;21003199;28;19931;-59
2023/06/17 23:17:40;;;;;;;;;;;25.80;47.80;;;;;;21001391;28;19925;-60
2023/06/17 23:27:43;;;;;;;;;;;25.90;48.00;;;;;;21000915;28;19924;-59
2023/06/17 23:37:43;;;;;;;;;;;25.80;48.00;;;;;;21000630;28;19925;-60
2023/06/17 23:47:44;;;;;;;;;;;25.50;48.70;;;;;;21000621;28;20404;-60
2023/06/17 23:57:45;;;;;;;;;;;25.50;48.70;;;;;;20999298;28;19929;-59
